Time;durP1;ratioP1;P1;durP2;ratioP2;P2;SDS_P1;SDS_P2;PMS_P1;PMS_P2;Temp;Humidity;BMP_temperature;BMP_pressure;BME280_temperature;BME280_humidity;BME280_pressure;Samples;Min_cycle;Max_cycle;Signal;HPM_P1;HPM_P2
2023/09/04 00:01:40;;;;;;;0.28;0.28;;;15.40;99.90;;;;;;4954633;28;20479;-70
2023/09/04 00:04:06;;;;;;;0.10;0.10;;;15.50;99.90;;;;;;4919949;28;20038;-69
2023/09/04 00:06:32;;;;;;;0.00;0.00;;;15.40;99.90;;;;;;4924086;28;20040;-70
2023/09/04 00:08:59;;;;;;;0.32;0.30;;;15.50;99.90;;;;;;4910559;28;20534;-69
2023/09/04 00:11:28;;;;;;;0.15;0.15;;;15.40;99.90;;;;;;4927166;28;20397;-70
2023/09/04 00:13:54;;;;;;;5.50;0.55;;;15.40;99.90;;;;;;4945409;28;20404;-70
2023/09/04 00:16:19;;;;;;;0.30;0.30;;;15.30;99.90;;;;;;4920202;28;20048;-69
2023/09/04 00:18:46;;;;;;;0.00;0.00;;;15.40;99.90;;;;;;4958025;28;20447;-69
2023/09/04 00:21:12;;;;;;;0.88;0.50;;;15.40;99.90;;;;;;4913866;28;20052;-69
2023/09/04 00:23:38;;;;;;;0.20;0.20;;;15.30;99.90;;;;;;4935469;28;20367;-69
2023/09/04 00:26:03;;;;;;;0.03;0.03;;;15.40;99.90;;;;;;4946730;28;20113;-70
2023/09/04 00:28:29;;;;;;;0.30;0.30;;;15.40;99.90;;;;;;4940562;28;20044;-70
2023/09/04 00:30:56;;;;;;;0.10;0.10;;;15.40;99.90;;;;;;4911426;28;20043;-70
2023/09/04 00:33:22;;;;;;;0.50;0.43;;;15.40;99.90;;;;;;4954631;28;20401;-69
2023/09/04 00:35:48;;;;;;;0.13;0.13;;;15.40;99.90;;;;;;4961926;28;20062;-69
2023/09/04 00:38:13;;;;;;;0.10;0.10;;;15.40;99.90;;;;;;4951283;28;20398;-70
2023/09/04 00:40:39;;;;;;;0.17;0.17;;;15.40;99.90;;;;;;4914767;28;20542;-69
2023/09/04 00:43:05;;;;;;;0.00;0.00;;;15.40;99.90;;;;;;4967754;28;20061;-70
2023/09/04 00:45:34;;;;;;;0.57;0.57;;;15.40;99.90;;;;;;4962406;28;20059;-69
2023/09/04 00:48:00;;;;;;;0.15;0.15;;;15.40;99.90;;;;;;4942285;28;20082;-69
2023/09/04 00:50:26;;;;;;;0.75;0.75;;;15.40;99.90;;;;;;4953985;28;20487;-70
2023/09/04 00:53:04;;;;;;;0.77;0.35;;;15.40;99.90;;;;;;4976953;28;20052;-70
2023/09/04 00:55:30;;;;;;;0.30;0.30;;;15.40;99.90;;;;;;4949316;28;20051;-69
2023/09/04 00:57:56;;;;;;;0.10;0.10;;;15.50;99.90;;;;;;4929792;28;20048;-69
2023/09/04 01:00:23;;;;;;;1.45;0.38;;;15.40;99.90;;;;;;4944342;28;20045;-70
2023/09/04 01:02:49;;;;;;;0.00;0.00;;;15.50;99.90;;;;;;4921890;28;20127;-70
2023/09/04 01:05:15;;;;;;;0.13;0.13;;;15.40;99.90;;;;;;4934136;28;20214;-70
2023/09/04 01:07:42;;;;;;;0.32;0.32;;;15.50;99.90;;;;;;4907362;28;20131;-69
2023/09/04 01:10:09;;;;;;;0.00;0.00;;;15.50;99.90;;;;;;4951374;28;20032;-69
2023/09/04 01:13:12;;;;;;;0.00;0.00;;;15.40;99.90;;;;;;4911318;28;20055;-69
2023/09/04 01:15:38;;;;;;;0.13;0.13;;;15.50;99.90;;;;;;4957303;28;20503;-69
2023/09/04 01:18:04;;;;;;;0.10;0.10;;;15.40;99.90;;;;;;4907877;28;20037;-70
2023/09/04 01:20:30;;;;;;;0.10;0.10;;;15.40;99.90;;;;;;4943478;28;20106;-69
2023/09/04 01:22:57;;;;;;;0.10;0.10;;;15.40;99.90;;;;;;4899884;28;20135;-69
2023/09/04 01:25:38;;;;;;;0.00;0.00;;;15.40;99.90;;;;;;4901556;28;20094;-69
2023/09/04 01:28:10;;;;;;;0.10;0.10;;;15.40;99.90;;;;;;4934288;28;20123;-69
2023/09/04 01:30:49;;;;;;;0.57;0.57;;;15.30;99.90;;;;;;4912866;28;20109;-69
2023/09/04 01:33:19;;;;;;;0.40;0.32;;;15.30;99.90;;;;;;4959327;28;20054;-69
2023/09/04 01:35:49;;;;;;;0.17;0.17;;;15.30;99.90;;;;;;4947914;28;20048;-69
2023/09/04 01:38:14;;;;;;;0.28;0.28;;;15.20;99.90;;;;;;4898283;28;20083;-70
2023/09/04 01:40:41;;;;;;;0.75;0.75;;;15.30;99.90;;;;;;4930267;28;20075;-69
2023/09/04 01:43:06;;;;;;;1.30;0.35;;;15.30;99.90;;;;;;4967569;28;20371;-69
2023/09/04 01:45:32;;;;;;;0.38;0.38;;;15.30;99.90;;;;;;4954395;28;20132;-69
2023/09/04 01:47:58;;;;;;;0.10;0.10;;;15.30;99.90;;;;;;4927720;28;20048;-69
2023/09/04 01:50:23;;;;;;;0.20;0.20;;;15.30;99.90;;;;;;4935691;28;20091;-69
2023/09/04 01:52:49;;;;;;;0.20;0.20;;;15.20;99.90;;;;;;4935139;28;20127;-69
2023/09/04 01:55:14;;;;;;;0.28;0.28;;;15.20;99.90;;;;;;4911633;28;20048;-69
2023/09/04 01:57:40;;;;;;;1.55;0.85;;;15.20;99.90;;;;;;4904124;28;20515;-69
2023/09/04 02:00:07;;;;;;;0.13;0.13;;;15.30;99.90;;;;;;4921516;28;20060;-69
2023/09/04 02:02:33;;;;;;;0.20;0.20;;;15.20;99.90;;;;;;4923062;28;20097;-69
2023/09/04 02:04:59;;;;;;;0.20;0.20;;;15.20;99.90;;;;;;4934622;28;20072;-69
2023/09/04 02:07:24;;;;;;;0.30;0.25;;;15.20;99.90;;;;;;4938552;28;20061;-69
2023/09/04 02:09:50;;;;;;;1.15;0.93;;;15.20;99.90;;;;;;4935132;28;21131;-69
2023/09/04 02:12:15;;;;;;;1.38;1.05;;;15.10;99.90;;;;;;4969345;28;20049;-69
2023/09/04 02:14:41;;;;;;;0.30;0.30;;;15.10;99.90;;;;;;4957727;28;20496;-69
2023/09/04 02:17:07;;;;;;;0.00;0.00;;;15.10;99.90;;;;;;4958435;28;20129;-69
2023/09/04 02:19:34;;;;;;;1.02;0.85;;;15.10;99.90;;;;;;4955795;28;20037;-69
2023/09/04 02:21:59;;;;;;;0.17;0.17;;;15.00;99.90;;;;;;4964166;28;20046;-69
2023/09/04 02:24:25;;;;;;;7.30;0.70;;;15.00;99.90;;;;;;4942142;28;20044;-69
2023/09/04 02:26:51;;;;;;;0.00;0.00;;;15.00;99.90;;;;;;4914220;28;20119;-69
2023/09/04 02:29:16;;;;;;;0.15;0.15;;;15.00;99.90;;;;;;4911615;28;20450;-69
2023/09/04 02:31:43;;;;;;;0.30;0.30;;;15.00;99.90;;;;;;4988036;28;20051;-69
2023/09/04 02:34:08;;;;;;;0.55;0.38;;;14.90;99.90;;;;;;4902741;28;20071;-69
2023/09/04 02:36:34;;;;;;;0.00;0.00;;;14.90;99.90;;;;;;4956580;28;20041;-70
2023/09/04 02:38:59;;;;;;;0.63;0.63;;;14.90;99.90;;;;;;4960494;28;20034;-69
2023/09/04 02:41:25;;;;;;;0.00;0.00;;;14.90;99.90;;;;;;4917939;28;20408;-69
2023/09/04 02:43:50;;;;;;;0.45;0.43;;;14.90;99.90;;;;;;4930105;28;20043;-69
2023/09/04 02:46:16;;;;;;;0.10;0.10;;;14.90;99.90;;;;;;4924241;28;20819;-69
2023/09/04 02:48:42;;;;;;;1.05;1.05;;;14.90;99.90;;;;;;4911408;28;20051;-69
2023/09/04 02:51:07;;;;;;;0.50;0.50;;;14.90;99.90;;;;;;4937578;28;20217;-69
2023/09/04 02:53:33;;;;;;;0.20;0.20;;;14.90;99.90;;;;;;4921656;28;20056;-69
2023/09/04 02:55:59;;;;;;;0.47;0.47;;;14.90;99.90;;;;;;4949851;28;20040;-69
2023/09/04 02:58:24;;;;;;;0.30;0.22;;;14.80;99.90;;;;;;4958105;28;20040;-69
2023/09/04 03:00:50;;;;;;;0.38;0.38;;;14.80;99.90;;;;;;4956994;28;20046;-69
2023/09/04 03:03:19;;;;;;;0.15;0.15;;;14.80;99.90;;;;;;4940482;28;20441;-69
2023/09/04 03:05:45;;;;;;;0.00;0.00;;;14.80;99.90;;;;;;4930905;28;20048;-69
2023/09/04 03:08:10;;;;;;;0.10;0.10;;;14.80;99.90;;;;;;4940012;28;20041;-69
2023/09/04 03:10:36;;;;;;;0.20;0.20;;;14.80;99.90;;;;;;4924541;28;20048;-69
2023/09/04 03:13:02;;;;;;;0.22;0.22;;;14.80;99.90;;;;;;4954123;28;20048;-69
2023/09/04 03:15:28;;;;;;;0.10;0.10;;;14.80;99.90;;;;;;4939384;28;20124;-69
2023/09/04 03:17:53;;;;;;;2.60;0.30;;;14.70;99.90;;;;;;4921056;28;20154;-69
2023/09/04 03:20:19;;;;;;;0.00;0.00;;;14.70;99.90;;;;;;4924207;28;20122;-69
2023/09/04 03:22:46;;;;;;;0.25;0.25;;;14.80;99.90;;;;;;4930007;28;20050;-69
2023/09/04 03:25:11;;;;;;;2.08;0.45;;;14.70;99.90;;;;;;4916985;28;20044;-69
2023/09/04 03:27:37;;;;;;;0.00;0.00;;;14.60;99.90;;;;;;4907420;28;20113;-69
2023/09/04 03:30:03;;;;;;;0.10;0.10;;;14.60;99.90;;;;;;4944495;28;20835;-69
2023/09/04 03:32:29;;;;;;;0.50;0.50;;;14.60;99.90;;;;;;4938811;28;20052;-69
2023/09/04 03:34:54;;;;;;;0.32;0.30;;;14.60;99.90;;;;;;4924197;28;20054;-69
2023/09/04 03:37:20;;;;;;;0.43;0.43;;;14.60;99.90;;;;;;4951402;28;20066;-69
2023/09/04 03:39:45;;;;;;;0.03;0.03;;;14.60;99.90;;;;;;4987219;28;20038;-69
2023/09/04 03:42:12;;;;;;;0.08;0.08;;;14.70;99.90;;;;;;4944666;28;20052;-69
2023/09/04 03:44:37;;;;;;;0.20;0.20;;;14.60;99.90;;;;;;4900683;28;20056;-69
2023/09/04 03:47:03;;;;;;;0.95;0.75;;;14.60;99.90;;;;;;4950888;28;20044;-69
2023/09/04 03:49:29;;;;;;;0.32;0.32;;;14.60;99.90;;;;;;4918832;28;20044;-70
2023/09/04 03:51:54;;;;;;;0.73;0.73;;;14.60;99.90;;;;;;4920572;28;20106;-69
2023/09/04 03:54:21;;;;;;;1.20;0.40;;;14.60;99.90;;;;;;4966317;28;20081;-69
2023/09/04 03:56:47;;;;;;;0.45;0.43;;;14.70;99.90;;;;;;4933037;28;20091;-69
2023/09/04 03:59:12;;;;;;;0.17;0.17;;;14.60;99.90;;;;;;4926531;28;20049;-69
2023/09/04 04:01:38;;;;;;;0.10;0.10;;;14.60;99.90;;;;;;4961696;28;20499;-69
2023/09/04 04:04:04;;;;;;;0.10;0.10;;;14.60;99.90;;;;;;4944134;28;20044;-69
2023/09/04 04:06:29;;;;;;;0.03;0.03;;;14.60;99.90;;;;;;4934159;28;20465;-69
2023/09/04 04:08:55;;;;;;;0.03;0.03;;;14.60;99.90;;;;;;4975847;28;20046;-69
2023/09/04 04:11:21;;;;;;;0.00;0.00;;;14.60;99.90;;;;;;4911583;28;20054;-69
2023/09/04 04:13:47;;;;;;;0.00;0.00;;;14.60;99.90;;;;;;4951557;28;20053;-69
2023/09/04 04:16:13;;;;;;;3.40;0.43;;;14.60;99.90;;;;;;4934039;28;20450;-69
2023/09/04 04:18:39;;;;;;;2.47;0.95;;;14.60;99.90;;;;;;4936893;28;20052;-69
2023/09/04 04:21:05;;;;;;;0.15;0.15;;;14.50;99.90;;;;;;4943182;28;20550;-69
2023/09/04 04:23:33;;;;;;;0.00;0.00;;;14.60;99.90;;;;;;4936589;28;20461;-69
2023/09/04 04:25:58;;;;;;;0.57;0.57;;;14.60;99.90;;;;;;4918295;28;20060;-69
2023/09/04 04:28:24;;;;;;;0.00;0.00;;;14.60;99.90;;;;;;4970649;28;20393;-69
2023/09/04 04:30:50;;;;;;;0.47;0.17;;;14.60;99.90;;;;;;4941594;28;20480;-69
2023/09/04 04:33:15;;;;;;;0.00;0.00;;;14.50;99.90;;;;;;4943401;28;20110;-69
2023/09/04 04:35:42;;;;;;;0.13;0.13;;;14.50;99.90;;;;;;4922452;28;20080;-69
2023/09/04 04:38:08;;;;;;;0.15;0.15;;;14.50;99.90;;;;;;4938629;28;20042;-69
2023/09/04 04:40:35;;;;;;;0.00;0.00;;;14.50;99.90;;;;;;4949085;28;20439;-69
2023/09/04 04:43:01;;;;;;;0.17;0.17;;;14.40;99.90;;;;;;4936485;28;20045;-69
2023/09/04 04:45:27;;;;;;;0.45;0.45;;;14.40;99.90;;;;;;4930904;28;20476;-69
2023/09/04 04:47:52;;;;;;;0.15;0.15;;;14.40;99.90;;;;;;4941772;28;20068;-69
2023/09/04 04:50:18;;;;;;;0.00;0.00;;;14.40;99.90;;;;;;4921488;28;20064;-69
2023/09/04 04:52:43;;;;;;;0.10;0.10;;;14.40;99.90;;;;;;4911552;28;20060;-69
2023/09/04 04:55:12;;;;;;;0.10;0.10;;;14.40;99.90;;;;;;4905813;28;20556;-70
2023/09/04 04:57:37;;;;;;;0.25;0.25;;;14.40;99.90;;;;;;4960106;28;20096;-70
2023/09/04 05:00:07;;;;;;;1.35;0.63;;;14.40;99.90;;;;;;4925239;28;20052;-70
2023/09/04 05:02:36;;;;;;;13.13;0.93;;;14.40;99.90;;;;;;4941438;28;20065;-70
2023/09/04 05:05:02;;;;;;;1.73;0.52;;;14.40;99.90;;;;;;4962790;28;20056;-70
2023/09/04 05:07:29;;;;;;;0.13;0.13;;;14.40;99.90;;;;;;4936099;28;20042;-70
2023/09/04 05:09:56;;;;;;;0.30;0.30;;;14.40;99.90;;;;;;4916958;28;20057;-69
2023/09/04 05:12:22;;;;;;;0.22;0.22;;;14.40;99.90;;;;;;4947109;28;20054;-70
2023/09/04 05:14:48;;;;;;;0.00;0.00;;;14.40;99.90;;;;;;4952593;28;20059;-69
2023/09/04 05:17:14;;;;;;;0.50;0.50;;;14.50;99.90;;;;;;4919440;28;20396;-69
2023/09/04 05:19:40;;;;;;;0.00;0.00;;;14.50;99.90;;;;;;4961934;28;20393;-69
2023/09/04 05:22:06;;;;;;;0.10;0.10;;;14.40;99.90;;;;;;4938323;28;20110;-69
2023/09/04 05:24:31;;;;;;;0.28;0.28;;;14.50;99.90;;;;;;4919045;28;20106;-70
2023/09/04 05:26:57;;;;;;;0.00;0.00;;;14.50;99.90;;;;;;4934913;28;20441;-69
2023/09/04 05:29:23;;;;;;;0.10;0.10;;;14.50;99.90;;;;;;4929300;28;20048;-70
2023/09/04 05:31:51;;;;;;;0.45;0.45;;;14.60;99.90;;;;;;4915189;28;21023;-70
2023/09/04 05:34:18;;;;;;;0.32;0.32;;;14.50;99.90;;;;;;4909707;28;20117;-70
2023/09/04 05:36:43;;;;;;;0.30;0.30;;;14.60;99.90;;;;;;4915585;28;20168;-70
2023/09/04 05:39:09;;;;;;;0.30;0.30;;;14.60;99.90;;;;;;4974469;28;20521;-69
2023/09/04 05:41:36;;;;;;;0.10;0.10;;;14.60;99.90;;;;;;4956121;28;20397;-69
2023/09/04 05:44:02;;;;;;;0.15;0.15;;;14.60;99.90;;;;;;4943585;28;20049;-69
2023/09/04 05:46:28;;;;;;;0.13;0.13;;;14.70;99.90;;;;;;4910375;28;20144;-69
2023/09/04 05:48:53;;;;;;;0.10;0.10;;;14.70;99.90;;;;;;4936116;28;20563;-69
2023/09/04 05:51:19;;;;;;;0.63;0.38;;;14.70;99.90;;;;;;4914612;28;20101;-70
2023/09/04 05:53:45;;;;;;;0.00;0.00;;;14.80;99.90;;;;;;4940341;28;20060;-70
2023/09/04 05:56:11;;;;;;;0.00;0.00;;;14.70;99.90;;;;;;4956916;28;20037;-70
2023/09/04 05:58:49;;;;;;;0.32;0.32;;;14.80;99.90;;;;;;4924862;28;20036;-70
2023/09/04 06:01:15;;;;;;;0.20;0.15;;;14.80;99.90;;;;;;4926184;28;20081;-70
2023/09/04 06:03:43;;;;;;;0.10;0.10;;;14.80;99.90;;;;;;4919665;28;20532;-70
2023/09/04 06:06:09;;;;;;;0.20;0.20;;;14.90;99.90;;;;;;4925816;28;20052;-70
2023/09/04 06:08:35;;;;;;;0.10;0.10;;;14.90;99.90;;;;;;4932820;28;20056;-70
2023/09/04 06:11:02;;;;;;;0.10;0.10;;;15.00;99.90;;;;;;4910948;28;20488;-70
2023/09/04 06:13:28;;;;;;;0.10;0.10;;;15.00;99.90;;;;;;4966663;28;20787;-70
2023/09/04 06:15:54;;;;;;;0.10;0.10;;;15.10;99.90;;;;;;4920448;28;20041;-70
2023/09/04 06:18:20;;;;;;;0.20;0.20;;;15.10;99.90;;;;;;4920983;28;20071;-70
2023/09/04 06:20:46;;;;;;;0.75;0.73;;;15.10;99.90;;;;;;4969953;28;20366;-71
2023/09/04 06:23:12;;;;;;;0.00;0.00;;;15.20;99.90;;;;;;4909711;28;20044;-70
2023/09/04 06:25:42;;;;;;;0.08;0.08;;;15.20;99.90;;;;;;4972314;28;20044;-70
2023/09/04 06:28:09;;;;;;;0.08;0.08;;;15.30;99.90;;;;;;4902189;28;20056;-70
2023/09/04 06:30:35;;;;;;;0.20;0.20;;;15.30;99.90;;;;;;4959029;28;20075;-70
2023/09/04 06:33:01;;;;;;;0.10;0.10;;;15.30;99.90;;;;;;4941311;28;20078;-70
2023/09/04 06:35:26;;;;;;;1.02;0.38;;;15.40;99.90;;;;;;4913207;28;20135;-70
2023/09/04 06:37:52;;;;;;;1.75;0.75;;;15.50;99.90;;;;;;4973879;28;20442;-70
2023/09/04 06:40:18;;;;;;;0.20;0.20;;;15.60;99.90;;;;;;4969662;28;20033;-70
2023/09/04 06:42:43;;;;;;;0.10;0.10;;;15.60;99.90;;;;;;4963992;28;20146;-69
2023/09/04 06:45:09;;;;;;;0.10;0.10;;;15.70;99.90;;;;;;4942258;28;20049;-69
2023/09/04 06:47:35;;;;;;;0.00;0.00;;;15.80;99.90;;;;;;4970780;28;20044;-70
2023/09/04 06:50:01;;;;;;;0.17;0.17;;;15.80;99.90;;;;;;4939114;28;20052;-69
2023/09/04 06:52:27;;;;;;;0.00;0.00;;;15.90;99.90;;;;;;4963772;28;20042;-68
2023/09/04 06:54:52;;;;;;;0.00;0.00;;;15.90;99.90;;;;;;4917812;28;20135;-68
2023/09/04 06:57:18;;;;;;;0.75;0.68;;;15.90;99.90;;;;;;4921634;28;20433;-69
2023/09/04 06:59:44;;;;;;;0.00;0.00;;;16.00;99.90;;;;;;4912491;28;20823;-68
2023/09/04 07:02:09;;;;;;;0.00;0.00;;;16.10;99.90;;;;;;4958238;28;20047;-68
2023/09/04 07:04:35;;;;;;;0.47;0.30;;;16.10;99.90;;;;;;4951958;28;20032;-69
2023/09/04 07:07:00;;;;;;;0.10;0.10;;;16.20;99.90;;;;;;4921789;28;20123;-70
2023/09/04 07:09:26;;;;;;;0.08;0.08;;;16.20;99.90;;;;;;4976446;28;20044;-70
2023/09/04 07:11:52;;;;;;;0.00;0.00;;;16.20;99.90;;;;;;4987738;28;20470;-70
2023/09/04 07:14:17;;;;;;;0.10;0.10;;;16.30;99.90;;;;;;4913129;28;20080;-70
2023/09/04 07:16:43;;;;;;;0.08;0.08;;;16.40;99.90;;;;;;4962622;28;20046;-70
2023/09/04 07:19:09;;;;;;;0.10;0.10;;;16.50;99.90;;;;;;4933188;28;20053;-70
2023/09/04 07:21:36;;;;;;;0.20;0.20;;;16.50;99.90;;;;;;4959209;28;20063;-70
2023/09/04 07:24:03;;;;;;;0.10;0.10;;;16.50;99.90;;;;;;4937350;28;20390;-70
2023/09/04 07:26:29;;;;;;;0.17;0.17;;;16.60;99.90;;;;;;4941250;28;20067;-70
2023/09/04 07:28:55;;;;;;;0.10;0.10;;;16.60;99.90;;;;;;4911923;28;20441;-70
2023/09/04 07:31:21;;;;;;;0.47;0.45;;;16.70;99.90;;;;;;4954569;28;20056;-70
2023/09/04 07:33:47;;;;;;;0.17;0.17;;;16.70;99.90;;;;;;4939134;28;20053;-70
2023/09/04 07:36:13;;;;;;;0.20;0.20;;;16.80;99.90;;;;;;4958720;28;20100;-70
2023/09/04 07:38:39;;;;;;;0.13;0.13;;;16.90;99.90;;;;;;4956433;28;20386;-70
2023/09/04 07:41:05;;;;;;;0.13;0.13;;;16.90;99.90;;;;;;4960622;28;20045;-69
2023/09/04 07:43:31;;;;;;;0.05;0.05;;;17.00;99.90;;;;;;4925221;28;20099;-70
2023/09/04 07:45:57;;;;;;;0.00;0.00;;;17.00;99.90;;;;;;4979942;28;20057;-70
2023/09/04 07:48:23;;;;;;;0.10;0.10;;;17.10;99.90;;;;;;4953161;28;20056;-70
2023/09/04 07:50:49;;;;;;;0.00;0.00;;;17.20;99.90;;;;;;4918555;28;20044;-70
2023/09/04 07:53:15;;;;;;;0.00;0.00;;;17.20;99.90;;;;;;4974705;28;20044;-70
2023/09/04 07:55:43;;;;;;;0.00;0.00;;;17.20;99.90;;;;;;4987628;28;20056;-70
2023/09/04 07:58:10;;;;;;;0.00;0.00;;;17.30;99.90;;;;;;4904745;28;20482;-70
2023/09/04 08:00:36;;;;;;;0.00;0.00;;;17.40;99.90;;;;;;4973074;28;20057;-70
2023/09/04 08:03:03;;;;;;;0.20;0.20;;;17.50;99.90;;;;;;4962282;28;20052;-70
2023/09/04 08:05:29;;;;;;;0.43;0.32;;;17.60;99.90;;;;;;4919235;28;20053;-70
2023/09/04 08:07:54;;;;;;;0.25;0.15;;;17.60;99.90;;;;;;4937841;28;20060;-70
2023/09/04 08:10:20;;;;;;;0.17;0.17;;;17.70;99.90;;;;;;4944260;28;20052;-70
2023/09/04 08:12:45;;;;;;;0.00;0.00;;;17.70;99.90;;;;;;4945135;28;20083;-70
2023/09/04 08:15:11;;;;;;;0.00;0.00;;;17.80;99.90;;;;;;4960021;28;20052;-70
2023/09/04 08:17:37;;;;;;;0.00;0.00;;;17.80;99.90;;;;;;4952719;28;20135;-70
2023/09/04 08:20:03;;;;;;;0.20;0.20;;;17.90;99.90;;;;;;4976799;28;20485;-70
2023/09/04 08:22:28;;;;;;;0.22;0.22;;;18.00;99.90;;;;;;4918108;28;20049;-70
2023/09/04 08:24:54;;;;;;;0.73;0.50;;;18.00;99.90;;;;;;4942092;28;20066;-70
2023/09/04 08:27:20;;;;;;;0.00;0.00;;;18.10;99.90;;;;;;4924346;28;20400;-70
2023/09/04 08:29:45;;;;;;;0.08;0.08;;;18.10;99.90;;;;;;4960107;28;20088;-70
2023/09/04 08:32:11;;;;;;;0.00;0.00;;;18.10;99.90;;;;;;4952348;28;20071;-70
2023/09/04 08:34:37;;;;;;;0.00;0.00;;;18.20;99.90;;;;;;4922321;28;20048;-70
2023/09/04 08:37:03;;;;;;;0.00;0.00;;;18.30;99.90;;;;;;4950829;28;20370;-70
2023/09/04 08:39:28;;;;;;;0.00;0.00;;;18.40;99.90;;;;;;4954893;28;20051;-70
2023/09/04 08:41:55;;;;;;;0.10;0.10;;;18.40;99.90;;;;;;4968877;28;20044;-70
2023/09/04 08:44:20;;;;;;;0.00;0.00;;;18.50;99.90;;;;;;4949832;28;20345;-70
2023/09/04 08:46:49;;;;;;;0.00;0.00;;;18.50;99.90;;;;;;4933761;28;20488;-69
2023/09/04 08:49:18;;;;;;;0.93;0.20;;;18.60;99.90;;;;;;4944122;28;21672;-70
2023/09/04 08:51:45;;;;;;;0.00;0.00;;;18.70;99.90;;;;;;4931014;28;20044;-70
2023/09/04 08:54:11;;;;;;;0.00;0.00;;;18.80;99.90;;;;;;4967950;28;20045;-70
2023/09/04 08:56:37;;;;;;;0.00;0.00;;;18.90;99.90;;;;;;4929822;28;20365;-70
2023/09/04 08:59:02;;;;;;;0.00;0.00;;;19.00;99.90;;;;;;4945398;28;20040;-70
2023/09/04 09:01:33;;;;;;;0.00;0.00;;;19.10;99.90;;;;;;4966690;28;20148;-70
2023/09/04 09:04:02;;;;;;;0.77;0.65;;;19.50;99.90;;;;;;4938858;28;20048;-70
2023/09/04 09:06:28;;;;;;;0.10;0.10;;;20.40;99.90;;;;;;4943998;28;20044;-71
2023/09/04 09:08:58;;;;;;;1.10;0.52;;;21.40;99.90;;;;;;4953189;28;20392;-71
2023/09/04 09:11:23;;;;;;;0.03;0.03;;;22.00;99.90;;;;;;4951283;28;20133;-71
2023/09/04 09:13:49;;;;;;;0.00;0.00;;;22.60;99.90;;;;;;4931326;28;20152;-70
2023/09/04 09:16:21;;;;;;;0.10;0.10;;;22.90;99.90;;;;;;4926528;28;20094;-71
2023/09/04 09:18:48;;;;;;;0.00;0.00;;;23.50;99.90;;;;;;4951747;28;20042;-71
2023/09/04 09:21:30;;;;;;;0.00;0.00;;;23.60;99.90;;;;;;4918927;28;20044;-71
2023/09/04 09:24:19;;;;;;;0.63;0.63;;;24.00;99.90;;;;;;4897803;28;20067;-71
2023/09/04 09:26:49;;;;;;;0.00;0.00;;;24.20;99.90;;;;;;4930783;28;20061;-72
2023/09/04 09:29:17;;;;;;;0.05;0.05;;;24.50;99.90;;;;;;4919990;28;20061;-71
2023/09/04 09:31:45;;;;;;;0.00;0.00;;;24.50;99.90;;;;;;4969055;28;20482;-71
2023/09/04 09:34:11;;;;;;;1.15;0.43;;;24.40;99.90;;;;;;4951300;28;20062;-71
2023/09/04 09:36:37;;;;;;;0.17;0.17;;;24.50;99.90;;;;;;4956901;28;20049;-72
2023/09/04 09:39:05;;;;;;;0.00;0.00;;;24.70;99.90;;;;;;4940452;28;20049;-71
2023/09/04 09:41:31;;;;;;;0.00;0.00;;;24.80;99.90;;;;;;4961015;28;20092;-71
2023/09/04 09:44:04;;;;;;;0.90;0.52;;;24.80;99.90;;;;;;4934958;28;20044;-71
2023/09/04 09:46:30;;;;;;;0.00;0.00;;;25.20;99.90;;;;;;4919995;28;20135;-71
2023/09/04 09:48:58;;;;;;;0.00;0.00;;;25.40;99.90;;;;;;4927274;28;20061;-71
2023/09/04 09:51:23;;;;;;;0.00;0.00;;;25.60;99.90;;;;;;4930547;28;20106;-71
2023/09/04 09:53:51;;;;;;;0.20;0.20;;;25.70;99.90;;;;;;4941248;28;20399;-71
2023/09/04 09:56:18;;;;;;;0.00;0.00;;;25.70;99.90;;;;;;4929216;28;20070;-72
2023/09/04 09:58:49;;;;;;;0.13;0.13;;;25.60;99.90;;;;;;4928771;28;20050;-72
2023/09/04 10:01:17;;;;;;;0.00;0.00;;;25.70;99.90;;;;;;4905128;28;20049;-72
2023/09/04 10:03:46;;;;;;;0.00;0.00;;;26.10;99.90;;;;;;4928790;28;20054;-71
2023/09/04 10:06:21;;;;;;;0.35;0.35;;;26.20;99.90;;;;;;4923968;28;20050;-71
2023/09/04 10:08:50;;;;;;;0.00;0.00;;;26.30;99.90;;;;;;4949022;28;20071;-71
2023/09/04 10:11:16;;;;;;;0.25;0.25;;;26.30;99.90;;;;;;4938566;28;20050;-71
2023/09/04 10:14:04;;;;;;;0.13;0.00;;;26.00;99.90;;;;;;5005038;28;20445;-71
2023/09/04 10:16:40;;;;;;;0.00;0.00;;;25.70;99.90;;;;;;4919456;28;20052;-71
2023/09/04 10:19:09;;;;;;;0.30;0.22;;;25.50;99.90;;;;;;4965746;28;20071;-71
2023/09/04 10:21:40;;;;;;;0.00;0.00;;;25.40;99.90;;;;;;4957798;28;20364;-71
2023/09/04 10:24:12;;;;;;;0.10;0.10;;;25.20;99.90;;;;;;4934235;28;20068;-71
2023/09/04 10:27:05;;;;;;;0.32;0.20;;;25.00;99.90;;;;;;4938319;28;20048;-71
2023/09/04 10:29:35;;;;;;;0.00;0.00;;;24.80;99.90;;;;;;4949681;28;20048;-71
2023/09/04 10:32:01;;;;;;;0.00;0.00;;;24.40;99.90;;;;;;4964840;28;20052;-70
2023/09/04 10:34:29;;;;;;;0.45;0.35;;;24.50;99.90;;;;;;4941969;28;20110;-70
2023/09/04 10:36:54;;;;;;;0.30;0.30;;;24.50;99.90;;;;;;4931915;28;20062;-70
2023/09/04 10:39:21;;;;;;;0.00;0.00;;;24.30;99.90;;;;;;4926983;28;20051;-70
2023/09/04 10:41:46;;;;;;;0.68;0.68;;;24.40;99.90;;;;;;4956929;28;20052;-71
2023/09/04 10:44:51;;;;;;;0.00;0.00;;;24.50;99.90;;;;;;4908560;28;20111;-71
2023/09/04 10:47:18;;;;;;;0.55;0.30;;;24.30;99.90;;;;;;4904410;28;20056;-71
2023/09/04 10:49:45;;;;;;;0.00;0.00;;;24.00;99.90;;;;;;4912986;28;20120;-71
2023/09/04 10:52:11;;;;;;;0.00;0.00;;;24.00;99.90;;;;;;4937919;28;20548;-72
2023/09/04 10:54:39;;;;;;;0.00;0.00;;;24.20;99.90;;;;;;4918953;28;20059;-72
2023/09/04 10:57:07;;;;;;;0.00;0.00;;;24.40;99.90;;;;;;4933784;28;20498;-72
2023/09/04 10:59:52;;;;;;;0.13;0.00;;;24.50;99.90;;;;;;4919696;28;20101;-71
2023/09/04 11:02:32;;;;;;;0.00;0.00;;;24.50;99.90;;;;;;4929934;28;20111;-71
2023/09/04 11:05:00;;;;;;;0.00;0.00;;;24.50;99.90;;;;;;4917944;28;20094;-71
2023/09/04 11:07:28;;;;;;;0.00;0.00;;;24.70;99.90;;;;;;4953303;28;20044;-71
2023/09/04 11:10:29;;;;;;;0.08;0.08;;;24.70;99.90;;;;;;4954308;28;20524;-71
2023/09/04 11:12:55;;;;;;;0.65;0.38;;;24.90;99.90;;;;;;4937433;28;20439;-71
2023/09/04 11:15:22;;;;;;;0.70;0.43;;;24.90;99.90;;;;;;4926545;28;20106;-70
2023/09/04 11:17:51;;;;;;;0.00;0.00;;;24.80;99.90;;;;;;4923046;28;20120;-71
2023/09/04 11:20:17;;;;;;;0.00;0.00;;;24.90;99.90;;;;;;4928116;28;20091;-71
2023/09/04 11:22:47;;;;;;;1.27;0.63;;;25.00;99.90;;;;;;4912874;28;20055;-71
2023/09/04 11:25:13;;;;;;;0.00;0.00;;;25.10;99.90;;;;;;4945210;28;20411;-72
2023/09/04 11:27:39;;;;;;;0.40;0.32;;;25.20;99.90;;;;;;4903475;28;20163;-71
2023/09/04 11:30:05;;;;;;;0.05;0.05;;;25.50;99.90;;;;;;4902006;28;20436;-71
2023/09/04 11:32:36;;;;;;;0.00;0.00;;;25.60;99.90;;;;;;4927563;28;20535;-71
2023/09/04 11:35:02;;;;;;;0.00;0.00;;;25.80;99.90;;;;;;4906131;28;20060;-71
2023/09/04 11:37:32;;;;;;;0.00;0.00;;;25.90;99.90;;;;;;4936102;28;20508;-71
2023/09/04 11:40:00;;;;;;;2.53;0.30;;;26.00;99.90;;;;;;4915836;28;20039;-71
2023/09/04 11:42:27;;;;;;;0.00;0.00;;;26.00;99.90;;;;;;4940113;28;20113;-71
2023/09/04 11:44:53;;;;;;;0.00;0.00;;;26.10;99.90;;;;;;4911589;29;20464;-71
2023/09/04 11:47:20;;;;;;;0.05;0.05;;;26.10;99.90;;;;;;4928936;28;20056;-71
2023/09/04 11:49:46;;;;;;;0.00;0.00;;;26.20;99.90;;;;;;4909321;28;20389;-71
2023/09/04 11:52:13;;;;;;;0.00;0.00;;;26.20;99.90;;;;;;4923920;28;20087;-71
2023/09/04 11:54:42;;;;;;;0.00;0.00;;;26.50;99.90;;;;;;4915131;28;20163;-71
2023/09/04 11:57:09;;;;;;;0.00;0.00;;;26.70;99.90;;;;;;4925632;28;20069;-71
2023/09/04 11:59:36;;;;;;;0.25;0.25;;;26.70;99.90;;;;;;4924386;28;20043;-71
2023/09/04 12:02:03;;;;;;;0.00;0.00;;;26.70;99.90;;;;;;4958160;28;20036;-71
2023/09/04 12:04:32;;;;;;;0.00;0.00;;;27.00;99.90;;;;;;4916428;28;20123;-71
2023/09/04 12:07:05;;;;;;;0.00;0.00;;;27.00;99.90;;;;;;4951081;28;20045;-71
2023/09/04 12:09:33;;;;;;;0.13;0.13;;;27.10;99.90;;;;;;4903017;28;20497;-71
2023/09/04 12:12:01;;;;;;;0.10;0.10;;;27.40;99.90;;;;;;4954685;28;20040;-71
2023/09/04 12:14:27;;;;;;;0.00;0.00;;;27.70;99.90;;;;;;4929519;28;20496;-71
2023/09/04 12:16:52;;;;;;;0.00;0.00;;;27.50;99.90;;;;;;4914854;28;20052;-71
2023/09/04 12:19:24;;;;;;;0.52;0.52;;;27.70;99.90;;;;;;4910289;28;20052;-72
2023/09/04 12:21:50;;;;;;;0.00;0.00;;;27.70;99.90;;;;;;4966389;28;20041;-72
2023/09/04 12:24:17;;;;;;;0.00;0.00;;;27.80;99.90;;;;;;4909867;28;20052;-72
2023/09/04 12:26:46;;;;;;;0.00;0.00;;;28.00;99.90;;;;;;4920377;28;20059;-73
2023/09/04 12:29:11;;;;;;;0.00;0.00;;;28.20;99.90;;;;;;4912213;28;20044;-72
2023/09/04 12:31:37;;;;;;;0.00;0.00;;;28.30;99.90;;;;;;4900392;28;20044;-71
2023/09/04 12:34:04;;;;;;;1.85;1.08;;;28.30;99.90;;;;;;4940558;28;20085;-72
2023/09/04 12:36:32;;;;;;;1.00;0.65;;;28.40;99.90;;;;;;4919257;28;20115;-71
2023/09/04 12:38:57;;;;;;;0.00;0.00;;;28.60;99.90;;;;;;4922147;28;20407;-71
2023/09/04 12:41:23;;;;;;;0.10;0.10;;;28.80;99.90;;;;;;4925317;28;20044;-72
2023/09/04 12:43:49;;;;;;;0.03;0.03;;;28.80;99.90;;;;;;4933538;28;20714;-71
2023/09/04 12:46:14;;;;;;;0.00;0.00;;;28.80;99.90;;;;;;4932713;28;20570;-72
2023/09/04 12:48:43;;;;;;;0.00;0.00;;;28.60;99.90;;;;;;4914747;28;20044;-72